createdAt,value
2018-12-03T00:01:07.379Z,9.90
2018-12-03T00:03:36.879Z,8.70
2018-12-03T00:06:06.271Z,9.80
2018-12-03T00:08:35.499Z,9.20
2018-12-03T00:11:05.906Z,10.17
2018-12-03T00:13:35.227Z,10.03
2018-12-03T00:16:04.497Z,9.50
2018-12-03T00:18:34.411Z,9.23
2018-12-03T00:21:03.662Z,10.07
2018-12-03T00:23:32.990Z,9.90
2018-12-03T00:26:02.713Z,9.60
2018-12-03T00:28:32.771Z,10.07
2018-12-03T00:31:02.046Z,10.30
2018-12-03T00:33:31.432Z,10.17
2018-12-03T00:36:00.706Z,11.20
2018-12-03T00:38:30.035Z,10.60
2018-12-03T00:40:59.295Z,11.13
2018-12-03T00:43:28.684Z,11.87
2018-12-03T00:45:58.940Z,11.67
2018-12-03T00:48:28.224Z,12.03
2018-12-03T00:50:57.477Z,12.83
2018-12-03T00:53:26.712Z,13.57
2018-12-03T00:55:55.986Z,12.57
2018-12-03T00:58:25.355Z,13.17
2018-12-03T01:00:55.399Z,13.30
2018-12-03T01:03:24.690Z,13.13
2018-12-03T01:05:54.622Z,12.50
2018-12-03T01:08:24.566Z,12.70
2018-12-03T01:10:53.920Z,12.07
2018-12-03T01:13:23.206Z,12.03
2018-12-03T01:15:52.666Z,12.63
2018-12-03T01:18:22.089Z,11.80
2018-12-03T01:20:51.317Z,12.20
2018-12-03T01:23:21.690Z,11.80
2018-12-03T01:25:50.943Z,11.60
2018-12-03T01:28:20.276Z,11.70
2018-12-03T01:30:49.614Z,11.63
2018-12-03T01:33:19.145Z,12.90
2018-12-03T01:35:48.386Z,12.87
2018-12-03T01:38:17.889Z,12.30
2018-12-03T01:40:48.095Z,13.03
2018-12-03T01:43:17.355Z,13.13
2018-12-03T01:45:46.642Z,13.87
2018-12-03T01:48:15.878Z,13.53
2018-12-03T01:50:45.696Z,12.10
2018-12-03T01:53:14.943Z,12.20
2018-12-03T01:55:45.064Z,12.17
2018-12-03T01:58:14.286Z,11.00
2018-12-03T02:00:43.543Z,11.40
2018-12-03T02:03:12.805Z,9.80
2018-12-03T02:05:42.119Z,10.77
2018-12-03T02:08:11.389Z,10.33
2018-12-03T02:10:40.706Z,9.17
2018-12-03T02:13:09.966Z,9.33
2018-12-03T02:15:39.264Z,9.77
2018-12-03T02:18:08.462Z,9.90
2018-12-03T02:20:37.884Z,9.13
2018-12-03T02:23:07.963Z,9.50
2018-12-03T02:25:37.230Z,9.00
2018-12-03T02:28:07.260Z,9.20
2018-12-03T02:30:36.503Z,8.80
2018-12-03T02:33:06.616Z,9.50
2018-12-03T02:35:36.710Z,9.03
2018-12-03T02:38:06.055Z,9.20
2018-12-03T02:40:35.518Z,8.33
2018-12-03T02:43:04.939Z,7.80
2018-12-03T02:45:34.153Z,7.53
2018-12-03T02:48:03.963Z,7.47
2018-12-03T02:50:33.216Z,7.40
2018-12-03T02:53:02.506Z,7.50
2018-12-03T02:55:31.731Z,7.23
2018-12-03T02:58:07.886Z,7.53
2018-12-03T03:00:39.838Z,7.00
2018-12-03T03:03:09.117Z,6.47
2018-12-03T03:05:38.354Z,6.57
2018-12-03T03:08:07.624Z,6.27
2018-12-03T03:10:36.948Z,5.97
2018-12-03T03:13:06.209Z,5.97
2018-12-03T03:15:35.495Z,5.47
2018-12-03T03:18:05.061Z,5.67
2018-12-03T03:20:34.445Z,5.73
2018-12-03T03:23:03.830Z,5.00
2018-12-03T03:25:33.162Z,4.90
2018-12-03T03:28:02.447Z,5.30
2018-12-03T03:30:31.775Z,5.10
2018-12-03T03:33:00.996Z,5.40
2018-12-03T03:35:30.247Z,4.53
2018-12-03T03:37:59.447Z,4.80
2018-12-03T03:40:28.681Z,5.00
2018-12-03T03:42:57.929Z,5.07
2018-12-03T03:45:27.222Z,5.10
2018-12-03T03:47:56.468Z,4.43
2018-12-03T03:50:25.779Z,5.20
2018-12-03T03:52:55.069Z,4.63
2018-12-03T03:55:24.372Z,4.70
2018-12-03T03:57:53.583Z,5.00
2018-12-03T04:00:23.491Z,4.50
2018-12-03T04:02:52.741Z,3.83
2018-12-03T04:05:21.985Z,4.50
2018-12-03T04:07:51.492Z,5.93
2018-12-03T04:10:21.095Z,3.83
2018-12-03T04:12:50.300Z,4.33
2018-12-03T04:15:19.646Z,5.40
2018-12-03T04:17:48.945Z,3.33
2018-12-03T04:20:19.802Z,3.77
2018-12-03T04:22:51.561Z,3.70
2018-12-03T04:25:21.493Z,3.67
2018-12-03T04:27:50.743Z,3.60
2018-12-03T04:30:22.195Z,3.77
2018-12-03T04:32:52.674Z,3.83
2018-12-03T04:35:23.058Z,3.77
2018-12-03T04:37:52.310Z,3.43
2018-12-03T04:40:22.930Z,3.40
2018-12-03T04:42:52.177Z,4.37
2018-12-03T04:45:21.463Z,3.70
2018-12-03T04:47:51.420Z,3.20
2018-12-03T04:50:21.869Z,4.07
2018-12-03T04:52:51.102Z,3.60
2018-12-03T04:55:21.115Z,3.80
2018-12-03T04:57:50.852Z,3.23
2018-12-03T05:00:21.765Z,4.07
2018-12-03T05:02:52.432Z,3.93
2018-12-03T05:05:21.982Z,4.33
2018-12-03T05:07:51.241Z,3.80
2018-12-03T05:10:22.306Z,3.10
2018-12-03T05:12:53.176Z,3.73
2018-12-03T05:15:22.637Z,10.27
2018-12-03T05:17:51.985Z,4.90
2018-12-03T05:20:22.991Z,3.67
2018-12-03T05:22:52.391Z,4.67
2018-12-03T05:25:21.754Z,4.07
2018-12-03T05:27:51.603Z,3.93
2018-12-03T05:30:21.123Z,3.73
2018-12-03T05:32:50.346Z,4.20
2018-12-03T05:35:22.706Z,3.40
2018-12-03T05:37:51.991Z,3.83
2018-12-03T05:40:23.555Z,3.53
2018-12-03T05:42:53.076Z,3.67
2018-12-03T05:45:22.408Z,3.73
2018-12-03T05:47:51.710Z,3.47
2018-12-03T05:50:21.214Z,3.60
2018-12-03T05:52:50.561Z,3.97
2018-12-03T05:55:19.846Z,4.20
2018-12-03T05:57:49.106Z,5.10
2018-12-03T06:00:22.600Z,3.40
2018-12-03T06:02:52.699Z,4.13
2018-12-03T06:05:22.346Z,4.77
2018-12-03T06:07:51.583Z,4.60
2018-12-03T06:10:22.174Z,3.83
2018-12-03T06:12:51.658Z,4.40
2018-12-03T06:15:22.012Z,4.50
2018-12-03T06:17:53.470Z,4.37
2018-12-03T06:20:23.208Z,3.47
2018-12-03T06:22:53.900Z,4.13
2018-12-03T06:25:26.862Z,4.33
2018-12-03T06:27:56.126Z,4.17
2018-12-03T06:30:26.863Z,4.43
2018-12-03T06:32:56.067Z,3.70
2018-12-03T06:35:25.285Z,4.27
2018-12-03T06:37:54.587Z,3.50
2018-12-03T06:40:26.309Z,3.53
2018-12-03T06:42:55.554Z,4.03
2018-12-03T06:45:25.550Z,3.53
2018-12-03T06:47:56.378Z,3.90
2018-12-03T06:50:25.811Z,3.57
2018-12-03T06:52:55.035Z,3.93
2018-12-03T06:55:24.281Z,3.73
2018-12-03T06:57:53.496Z,3.30
2018-12-03T07:00:23.820Z,3.87
2018-12-03T07:02:53.087Z,3.80
2018-12-03T07:05:22.430Z,3.30
2018-12-03T07:07:54.320Z,3.53
2018-12-03T07:10:24.792Z,4.03
2018-12-03T07:12:59.734Z,3.60
2018-12-03T07:15:31.163Z,4.40
2018-12-03T07:18:00.397Z,3.43
2018-12-03T07:20:30.217Z,3.03
2018-12-03T07:22:59.593Z,3.93
2018-12-03T07:25:29.039Z,3.53
2018-12-03T07:28:05.390Z,3.70
2018-12-03T07:30:34.882Z,3.37
2018-12-03T07:33:04.810Z,3.40
2018-12-03T07:35:34.830Z,2.90
2018-12-03T07:38:04.115Z,3.47
2018-12-03T07:40:33.693Z,3.60
2018-12-03T07:43:02.936Z,3.90
2018-12-03T07:45:32.955Z,3.53
2018-12-03T07:48:02.295Z,3.10
2018-12-03T07:50:31.535Z,3.60
2018-12-03T07:53:00.844Z,3.67
2018-12-03T07:55:30.049Z,3.47
2018-12-03T07:58:03.347Z,3.20
2018-12-03T08:00:37.603Z,3.57
2018-12-03T08:03:07.260Z,3.53
2018-12-03T08:05:37.331Z,3.53
2018-12-03T08:08:07.899Z,3.40
2018-12-03T08:10:37.535Z,5.07
2018-12-03T08:13:09.510Z,3.30
2018-12-03T08:15:39.107Z,4.10
2018-12-03T08:18:11.560Z,4.03
2018-12-03T08:20:47.330Z,3.40
2018-12-03T08:23:19.678Z,3.77
2018-12-03T08:25:48.977Z,3.87
2018-12-03T08:28:18.277Z,3.53
2018-12-03T08:30:47.506Z,3.97
2018-12-03T08:33:16.886Z,3.60
2018-12-03T08:35:46.978Z,4.17
2018-12-03T08:38:16.305Z,4.20
2018-12-03T08:40:45.601Z,3.57
2018-12-03T08:43:14.825Z,4.13
2018-12-03T08:45:44.294Z,3.83
2018-12-03T08:48:14.498Z,4.30
2018-12-03T08:50:45.965Z,4.00
2018-12-03T08:53:16.029Z,4.13
2018-12-03T08:55:45.660Z,4.13
2018-12-03T08:58:16.078Z,4.33
2018-12-03T09:00:46.872Z,3.70
2018-12-03T09:03:22.555Z,3.73
2018-12-03T09:05:51.807Z,4.20
2018-12-03T09:08:21.334Z,4.67
2018-12-03T09:10:51.565Z,4.00
2018-12-03T09:13:22.598Z,4.60
2018-12-03T09:15:58.908Z,4.83
2018-12-03T09:18:32.455Z,4.77
2018-12-03T09:21:02.270Z,4.97
2018-12-03T09:23:31.661Z,3.77
2018-12-03T09:26:00.886Z,3.60
2018-12-03T09:28:30.354Z,3.63
2018-12-03T09:30:59.693Z,4.27
2018-12-03T09:33:29.365Z,3.67
2018-12-03T09:35:58.601Z,4.67
2018-12-03T09:38:28.838Z,4.23
2018-12-03T09:40:59.450Z,4.53
2018-12-03T09:43:30.092Z,3.73
2018-12-03T09:45:59.387Z,3.67
2018-12-03T09:48:28.693Z,4.03
2018-12-03T09:50:58.905Z,3.83
2018-12-03T09:53:29.001Z,5.13
2018-12-03T09:55:58.254Z,3.67
2018-12-03T09:58:27.543Z,4.37
2018-12-03T10:00:56.822Z,3.93
2018-12-03T10:03:28.699Z,4.30
2018-12-03T10:06:00.856Z,3.53
2018-12-03T10:08:31.855Z,3.57
2018-12-03T10:11:03.130Z,4.00
2018-12-03T10:13:33.055Z,3.97
2018-12-03T10:16:02.603Z,3.97
2018-12-03T10:18:31.840Z,3.63
2018-12-03T10:21:02.183Z,4.30
2018-12-03T10:23:31.589Z,4.00
2018-12-03T10:26:01.391Z,4.17
2018-12-03T10:28:31.479Z,4.20
2018-12-03T10:31:00.729Z,4.47
2018-12-03T10:33:31.889Z,4.30
2018-12-03T10:36:03.302Z,3.83
2018-12-03T10:38:38.174Z,5.20
2018-12-03T10:41:18.461Z,4.93
2018-12-03T10:43:47.735Z,5.33
2018-12-03T10:46:16.999Z,4.93
2018-12-03T10:48:46.680Z,3.90
2018-12-03T10:51:18.161Z,4.30
2018-12-03T10:53:47.408Z,4.67
2018-12-03T10:56:17.398Z,4.53
2018-12-03T10:58:47.045Z,4.90
2018-12-03T11:01:21.848Z,4.17
2018-12-03T11:03:56.864Z,4.13
2018-12-03T11:06:26.625Z,4.50
2018-12-03T11:08:56.621Z,4.37
2018-12-03T11:11:55.191Z,4.03
2018-12-03T11:14:23.507Z,4.67
2018-12-03T11:16:52.198Z,4.47
2018-12-03T11:19:20.403Z,3.97
2018-12-03T11:21:48.906Z,4.53
2018-12-03T11:24:17.119Z,3.93
2018-12-03T11:26:45.259Z,4.50
2018-12-03T11:29:13.411Z,5.30
2018-12-03T11:31:41.549Z,4.60
2018-12-03T11:34:10.819Z,4.13
2018-12-03T11:36:39.070Z,4.50
2018-12-03T11:39:08.274Z,4.23
2018-12-03T11:41:36.583Z,4.30
2018-12-03T11:44:04.994Z,4.70
2018-12-03T11:46:33.130Z,4.70
2018-12-03T11:49:01.335Z,4.20
2018-12-03T11:51:29.684Z,4.43
2018-12-03T11:53:58.122Z,4.53
2018-12-03T11:56:26.346Z,4.23
2018-12-03T11:58:54.491Z,4.47
2018-12-03T12:01:22.622Z,4.47
2018-12-03T12:03:50.771Z,4.60
2018-12-03T12:06:18.942Z,4.90
2018-12-03T12:08:47.288Z,4.37
2018-12-03T12:11:15.413Z,4.87
2018-12-03T12:13:43.582Z,4.50
2018-12-03T12:16:11.731Z,4.47
2018-12-03T12:18:39.910Z,4.17
2018-12-03T12:21:08.062Z,4.93
2018-12-03T12:23:36.193Z,4.20
2018-12-03T12:26:05.223Z,3.43
2018-12-03T12:28:38.206Z,3.80
2018-12-03T12:31:03.533Z,5.00
2018-12-03T12:33:31.732Z,4.27
2018-12-03T12:35:59.915Z,4.20
2018-12-03T12:38:28.191Z,4.07
2018-12-03T12:40:56.433Z,4.40
2018-12-03T12:43:24.679Z,4.07
2018-12-03T12:45:52.931Z,4.47
2018-12-03T12:48:21.388Z,4.30
2018-12-03T12:50:50.087Z,4.67
2018-12-03T12:53:18.211Z,4.37
2018-12-03T12:55:46.398Z,3.47
2018-12-03T12:58:14.563Z,4.60
2018-12-03T13:00:42.719Z,3.80
2018-12-03T13:03:10.870Z,4.00
2018-12-03T13:05:39.084Z,4.30
2018-12-03T13:08:07.222Z,4.50
2018-12-03T13:10:35.621Z,3.77
2018-12-03T13:13:03.758Z,4.00
2018-12-03T13:15:31.926Z,4.43
2018-12-03T13:18:00.071Z,4.83
2018-12-03T13:20:28.819Z,3.73
2018-12-03T13:22:56.954Z,5.43
2018-12-03T13:25:25.183Z,4.20
2018-12-03T13:27:53.423Z,3.90
2018-12-03T13:30:21.741Z,5.70
2018-12-03T13:32:49.879Z,4.40
2018-12-03T13:35:18.315Z,4.57
2018-12-03T13:37:47.106Z,4.43
2018-12-03T13:40:15.289Z,5.07
2018-12-03T13:42:43.459Z,4.93
2018-12-03T13:45:11.613Z,4.40
2018-12-03T13:47:40.097Z,5.23
2018-12-03T13:50:08.505Z,4.70
2018-12-03T13:52:36.846Z,4.60
2018-12-03T13:55:06.751Z,3.93
2018-12-03T13:57:34.969Z,4.47
2018-12-03T14:00:05.552Z,4.83
2018-12-03T14:02:33.877Z,5.00
2018-12-03T14:05:02.238Z,4.70
2018-12-03T14:07:30.401Z,4.70
2018-12-03T14:09:59.442Z,4.27
2018-12-03T14:12:27.763Z,4.43
2018-12-03T14:14:56.001Z,4.53
2018-12-03T14:17:24.145Z,5.03
2018-12-03T14:19:52.287Z,4.67
2018-12-03T14:22:20.430Z,4.67
2018-12-03T14:24:48.586Z,5.03
2018-12-03T14:27:17.019Z,4.27
2018-12-03T14:29:45.396Z,4.27
2018-12-03T14:32:13.531Z,4.17
2018-12-03T14:34:41.687Z,4.43
2018-12-03T14:37:09.916Z,4.40
2018-12-03T14:39:38.071Z,4.47
2018-12-03T14:42:06.515Z,4.83
2018-12-03T14:44:34.797Z,4.83
2018-12-03T14:47:03.230Z,4.77
2018-12-03T14:49:31.361Z,4.43
2018-12-03T14:51:59.755Z,4.10
2018-12-03T14:54:27.918Z,4.37
2018-12-03T14:56:56.180Z,4.73
2018-12-03T14:59:24.302Z,4.77
2018-12-03T15:01:52.455Z,4.17
2018-12-03T15:04:20.655Z,4.77
2018-12-03T15:06:48.819Z,4.57
2018-12-03T15:09:18.043Z,5.03
2018-12-03T15:11:46.321Z,4.87
2018-12-03T15:14:14.694Z,4.43
2018-12-03T15:16:42.980Z,5.03
2018-12-03T15:19:11.717Z,4.50
2018-12-03T15:21:40.075Z,4.30
2018-12-03T15:24:13.260Z,4.70
2018-12-03T15:26:38.438Z,5.57
2018-12-03T15:29:06.751Z,4.77
2018-12-03T15:31:35.030Z,5.50
2018-12-03T15:34:03.256Z,4.70
2018-12-03T15:36:31.393Z,4.40
2018-12-03T15:38:59.671Z,4.77
2018-12-03T15:41:27.930Z,4.53
2018-12-03T15:43:56.068Z,5.47
2018-12-03T15:46:24.245Z,4.53
2018-12-03T15:48:52.397Z,5.30
2018-12-03T15:51:20.588Z,5.10
2018-12-03T15:53:48.723Z,5.30
2018-12-03T15:56:16.869Z,4.83
2018-12-03T15:58:45.223Z,4.27
2018-12-03T16:01:14.508Z,4.40
2018-12-03T16:03:42.855Z,4.70
2018-12-03T16:06:10.989Z,5.40
2018-12-03T16:08:39.227Z,5.30
2018-12-03T16:11:07.379Z,5.27
2018-12-03T16:13:35.512Z,5.37
2018-12-03T16:16:03.758Z,5.50
2018-12-03T16:18:31.882Z,5.67
2018-12-03T16:21:00.151Z,6.20
2018-12-03T16:23:28.421Z,5.57
2018-12-03T16:25:56.642Z,6.17
2018-12-03T16:28:24.787Z,5.70
2018-12-03T16:30:52.960Z,5.73
2018-12-03T16:33:21.242Z,6.03
2018-12-03T16:35:49.384Z,6.50
2018-12-03T16:38:17.545Z,6.47
2018-12-03T16:40:45.875Z,5.93
2018-12-03T16:43:14.029Z,6.03
2018-12-03T16:45:42.191Z,6.83
2018-12-03T16:48:10.364Z,7.87
2018-12-03T16:50:38.523Z,7.50
2018-12-03T16:53:06.728Z,6.33
2018-12-03T16:55:34.955Z,6.70
2018-12-03T16:58:03.122Z,6.53
2018-12-03T17:00:31.300Z,5.63
2018-12-03T17:02:59.447Z,6.80
2018-12-03T17:05:27.606Z,6.20
2018-12-03T17:07:55.972Z,6.27
2018-12-03T17:10:24.191Z,5.97
2018-12-03T17:12:52.387Z,5.10
2018-12-03T17:15:20.735Z,6.70
2018-12-03T17:17:48.942Z,5.07
2018-12-03T17:20:17.310Z,6.70
2018-12-03T17:22:45.468Z,7.03
2018-12-03T17:25:13.840Z,6.50
2018-12-03T17:27:42.017Z,5.00
2018-12-03T17:30:10.337Z,4.70
2018-12-03T17:32:38.613Z,4.83
2018-12-03T17:35:06.812Z,3.87
2018-12-03T17:37:34.979Z,4.20
2018-12-03T17:40:03.831Z,3.90
2018-12-03T17:42:31.962Z,3.40
2018-12-03T17:45:00.104Z,4.50
2018-12-03T17:47:28.250Z,4.10
2018-12-03T17:49:56.383Z,3.53
2018-12-03T17:52:24.517Z,3.20
2018-12-03T17:54:52.672Z,3.90
2018-12-03T17:57:20.814Z,3.67
2018-12-03T17:59:49.045Z,5.47
2018-12-03T18:02:17.184Z,6.30
2018-12-03T18:04:45.335Z,5.60
2018-12-03T18:07:13.480Z,7.27
2018-12-03T18:09:41.625Z,5.47
2018-12-03T18:12:09.791Z,5.30
2018-12-03T18:14:37.918Z,5.03
2018-12-03T18:17:06.038Z,5.80
2018-12-03T18:19:34.225Z,6.27
2018-12-03T18:22:02.421Z,4.77
2018-12-03T18:24:30.565Z,6.10
2018-12-03T18:26:59.617Z,5.73
2018-12-03T18:29:27.805Z,4.77
2018-12-03T18:31:56.288Z,5.30
2018-12-03T18:34:24.530Z,5.03
2018-12-03T18:36:52.719Z,5.30
2018-12-03T18:39:20.879Z,4.10
2018-12-03T18:41:49.714Z,4.20
2018-12-03T18:44:17.852Z,2.80
2018-12-03T18:46:45.988Z,3.53
2018-12-03T18:49:14.119Z,3.50
2018-12-03T18:51:42.317Z,3.13
2018-12-03T18:54:10.544Z,3.13
2018-12-03T18:56:38.777Z,4.60
2018-12-03T18:59:06.904Z,2.97
2018-12-03T19:01:35.052Z,2.37
2018-12-03T19:04:04.029Z,2.47
2018-12-03T19:06:32.152Z,2.50
2018-12-03T19:09:00.288Z,2.30
2018-12-03T19:11:28.417Z,2.73
2018-12-03T19:13:57.140Z,2.83
2018-12-03T19:16:25.478Z,3.13
2018-12-03T19:18:53.606Z,2.87
2018-12-03T19:21:21.751Z,2.73
2018-12-03T19:23:49.889Z,2.50
2018-12-03T19:26:18.022Z,2.30
2018-12-03T19:28:46.163Z,2.80
2018-12-03T19:31:18.083Z,2.87
2018-12-03T19:33:46.214Z,2.90
2018-12-03T19:36:14.524Z,3.37
2018-12-03T19:38:42.666Z,3.20
2018-12-03T19:41:10.811Z,4.13
2018-12-03T19:43:38.951Z,3.47
2018-12-03T19:46:07.092Z,2.90
2018-12-03T19:48:35.417Z,2.47
2018-12-03T19:51:03.551Z,2.57
2018-12-03T19:53:31.742Z,2.47
2018-12-03T19:55:59.883Z,2.20
2018-12-03T19:58:28.014Z,2.77
2018-12-03T20:00:56.226Z,2.30
2018-12-03T20:03:24.359Z,2.50
2018-12-03T20:05:52.825Z,3.50
2018-12-03T20:08:20.947Z,2.47
2018-12-03T20:10:49.133Z,2.40
2018-12-03T20:13:17.438Z,2.43
2018-12-03T20:15:45.615Z,2.20
2018-12-03T20:18:13.898Z,2.20
2018-12-03T20:20:42.143Z,1.90
2018-12-03T20:23:10.291Z,1.90
2018-12-03T20:25:39.175Z,1.60
2018-12-03T20:28:07.623Z,1.40
2018-12-03T20:30:37.666Z,2.57
2018-12-03T20:33:05.832Z,1.60
2018-12-03T20:35:33.962Z,1.40
2018-12-03T20:38:02.170Z,1.53
2018-12-03T20:40:30.710Z,1.80
2018-12-03T20:42:58.842Z,2.00
2018-12-03T20:45:46.683Z,1.70
2018-12-03T20:48:14.931Z,1.63
2018-12-03T20:50:43.596Z,2.53
2018-12-03T20:53:11.978Z,1.83
2018-12-03T20:55:40.310Z,2.00
2018-12-03T20:58:08.538Z,1.67
2018-12-03T21:00:36.679Z,3.30
2018-12-03T21:03:04.811Z,2.10
2018-12-03T21:05:33.063Z,2.43
2018-12-03T21:08:01.228Z,2.13
2018-12-03T21:10:29.389Z,2.47
2018-12-03T21:12:57.532Z,2.50
2018-12-03T21:15:25.679Z,2.87
2018-12-03T21:17:53.812Z,2.50
2018-12-03T21:20:22.771Z,2.80
2018-12-03T21:22:51.411Z,2.20
2018-12-03T21:25:19.555Z,2.20
2018-12-03T21:27:47.738Z,2.20
2018-12-03T21:30:15.888Z,2.47
2018-12-03T21:32:44.193Z,2.03
2018-12-03T21:35:12.327Z,2.33
2018-12-03T21:37:40.517Z,1.87
2018-12-03T21:40:08.719Z,2.33
2018-12-03T21:42:36.870Z,2.10
2018-12-03T21:45:05.866Z,2.30
2018-12-03T21:47:35.379Z,2.10
2018-12-03T21:50:05.896Z,1.90
2018-12-03T21:52:33.918Z,2.10
2018-12-03T21:55:02.057Z,1.80
2018-12-03T21:57:30.212Z,2.33
2018-12-03T21:59:58.382Z,3.23
2018-12-03T22:02:26.518Z,2.33
2018-12-03T22:04:55.480Z,2.20
2018-12-03T22:07:23.744Z,2.40
2018-12-03T22:09:51.870Z,2.00
2018-12-03T22:12:20.007Z,2.00
2018-12-03T22:14:48.135Z,2.20
2018-12-03T22:17:16.272Z,2.10
2018-12-03T22:19:44.412Z,2.50
2018-12-03T22:22:12.538Z,2.27
2018-12-03T22:24:40.741Z,2.23
2018-12-03T22:27:08.891Z,2.10
2018-12-03T22:29:37.018Z,2.20
2018-12-03T22:32:05.278Z,2.23
2018-12-03T22:34:33.453Z,1.80
2018-12-03T22:37:01.730Z,1.60
2018-12-03T22:39:30.566Z,1.97
2018-12-03T22:41:58.802Z,1.27
2018-12-03T22:44:26.932Z,1.50
2018-12-03T22:46:55.060Z,1.73
2018-12-03T22:49:23.230Z,2.00
2018-12-03T22:51:51.759Z,1.70
2018-12-03T22:54:19.891Z,1.40
2018-12-03T22:56:48.074Z,2.00
2018-12-03T22:59:16.350Z,2.23
2018-12-03T23:01:44.543Z,2.00
2018-12-03T23:04:13.646Z,2.00
2018-12-03T23:06:41.792Z,1.90
2018-12-03T23:09:09.926Z,1.87
2018-12-03T23:11:38.784Z,3.40
2018-12-03T23:14:06.922Z,2.10
2018-12-03T23:16:35.053Z,1.70
2018-12-03T23:19:03.313Z,2.00
2018-12-03T23:21:31.439Z,1.50
2018-12-03T23:23:59.568Z,2.23
2018-12-03T23:26:27.706Z,1.80
2018-12-03T23:28:55.836Z,2.10
2018-12-03T23:31:23.986Z,1.53
2018-12-03T23:33:52.142Z,1.40
2018-12-03T23:36:20.276Z,1.73
2018-12-03T23:38:48.403Z,1.63
2018-12-03T23:41:16.549Z,1.53
2018-12-03T23:43:44.777Z,2.10
2018-12-03T23:46:12.908Z,1.60
2018-12-03T23:48:41.442Z,1.73
2018-12-03T23:51:09.597Z,1.57
2018-12-03T23:53:37.838Z,1.67
2018-12-03T23:56:05.982Z,1.97
2018-12-03T23:58:34.131Z,1.57
